Time;durP1;ratioP1;P1;durP2;ratioP2;P2;SDS_P1;SDS_P2;PMS_P1;PMS_P2;Temp;Humidity;BMP_temperature;BMP_pressure;BME280_temperature;BME280_humidity;BME280_pressure;Samples;Min_cycle;Max_cycle;Signal;HPM_P1;HPM_P2
2022/10/13 00:00:41;;;;;;;7.20;3.92;;;;;;;;;;4989246;28;20054;-72
2022/10/13 00:03:25;;;;;;;9.02;4.70;;;;;;;;;;4987115;28;20208;-71
2022/10/13 00:05:51;;;;;;;7.63;5.03;;;;;;;;;;4989352;28;20046;-72
2022/10/13 00:08:21;;;;;;;10.98;5.60;;;;;;;;;;4990054;28;20531;-75
2022/10/13 00:10:48;;;;;;;10.10;6.05;;;;;;;;;;4991480;28;20141;-71
2022/10/13 00:13:15;;;;;;;9.80;6.78;;;;;;;;;;4996079;28;20099;-72
2022/10/13 00:15:43;;;;;;;11.15;7.28;;;;;;;;;;4993959;28;20073;-72
2022/10/13 00:18:10;;;;;;;10.52;7.07;;;;;;;;;;4994461;28;20058;-73
2022/10/13 00:20:43;;;;;;;13.48;7.50;;;;;;;;;;4992863;28;20273;-71
2022/10/13 00:23:09;;;;;;;13.55;7.22;;;;;;;;;;4990894;28;20493;-72
2022/10/13 00:25:41;;;;;;;11.55;7.15;;;;;;;;;;4986924;28;20038;-73
2022/10/13 00:28:06;;;;;;;11.18;6.68;;;;;;;;;;4995718;28;20281;-72
2022/10/13 00:30:34;;;;;;;10.63;6.45;;;;;;;;;;4988308;28;20672;-74
2022/10/13 00:32:59;;;;;;;13.10;7.22;;;;;;;;;;4987325;28;20046;-71
2022/10/13 00:35:25;;;;;;;11.73;7.25;;;;;;;;;;4992067;28;20046;-73
2022/10/13 00:37:52;;;;;;;10.27;6.43;;;;;;;;;;4995382;28;20054;-73
2022/10/13 00:40:18;;;;;;;10.40;6.78;;;;;;;;;;4997061;28;20058;-73
2022/10/13 00:42:44;;;;;;;7.30;6.07;;;;;;;;;;4997163;28;20046;-73
2022/10/13 00:45:20;;;;;;;10.10;6.05;;;;;;;;;;4994113;28;20051;-72
2022/10/13 00:47:51;;;;;;;10.15;6.25;;;;;;;;;;4997634;28;20058;-71
2022/10/13 00:50:22;;;;;;;9.13;5.22;;;;;;;;;;5011930;28;20770;-73
2022/10/13 00:52:51;;;;;;;10.40;5.53;;;;;;;;;;4998330;28;20138;-72
2022/10/13 00:55:21;;;;;;;7.78;5.22;;;;;;;;;;4994004;28;20053;-72
2022/10/13 00:57:53;;;;;;;7.05;5.20;;;;;;;;;;4992909;28;20496;-74
2022/10/13 01:00:22;;;;;;;12.13;5.82;;;;;;;;;;4993124;28;20058;-72
2022/10/13 01:02:47;;;;;;;9.57;5.40;;;;;;;;;;4995097;28;20479;-75
2022/10/13 01:05:14;;;;;;;6.65;5.30;;;;;;;;;;4992065;28;20089;-71
2022/10/13 01:07:41;;;;;;;11.02;4.85;;;;;;;;;;4995220;28;20570;-71
2022/10/13 01:10:07;;;;;;;7.97;4.88;;;;;;;;;;4996966;28;20050;-73
2022/10/13 01:12:51;;;;;;;14.05;5.22;;;;;;;;;;4996929;28;20055;-73
2022/10/13 01:15:34;;;;;;;7.32;5.03;;;;;;;;;;4992489;28;20491;-72
2022/10/13 01:18:32;;;;;;;11.85;5.07;;;;;;;;;;4993075;28;20577;-72
2022/10/13 01:21:19;;;;;;;8.52;5.07;;;;;;;;;;4993294;28;20057;-72
2022/10/13 01:24:18;;;;;;;9.43;5.28;;;;;;;;;;4994137;28;20042;-72
2022/10/13 01:27:00;;;;;;;7.70;5.40;;;;;;;;;;4991727;28;20535;-72
2022/10/13 01:29:55;;;;;;;7.55;4.93;;;;;;;;;;4997248;28;20066;-75
2022/10/13 01:32:35;;;;;;;8.77;5.22;;;;;;;;;;4988016;28;20061;-72
2022/10/13 01:35:17;;;;;;;11.07;5.03;;;;;;;;;;4996549;28;20046;-71
2022/10/13 01:38:24;;;;;;;7.03;5.45;;;;;;;;;;4991853;28;20050;-70
2022/10/13 01:40:53;;;;;;;10.13;6.00;;;;;;;;;;4960373;28;20070;-71
2022/10/13 01:43:21;;;;;;;8.63;5.60;;;;;;;;;;4961492;28;20086;-72
2022/10/13 01:45:53;;;;;;;8.73;5.60;;;;;;;;;;4962743;28;20504;-73
2022/10/13 01:48:20;;;;;;;6.68;5.10;;;;;;;;;;4965497;28;20242;-73
2022/10/13 01:50:47;;;;;;;9.98;5.50;;;;;;;;;;4961552;28;20090;-71
2022/10/13 01:53:16;;;;;;;9.85;5.40;;;;;;;;;;4961880;28;20437;-71
2022/10/13 01:55:59;;;;;;;10.15;5.00;;;;;;;;;;4960033;28;20051;-72
2022/10/13 01:58:30;;;;;;;10.35;5.30;;;;;;;;;;4958779;28;20043;-73
2022/10/13 02:01:30;;;;;;;9.85;4.90;;;;;;;;;;4961022;28;20452;-73
2022/10/13 02:03:56;;;;;;;9.85;5.57;;;;;;;;;;4958047;28;20047;-71
2022/10/13 02:06:41;;;;;;;10.52;4.93;;;;;;;;;;4961724;28;20477;-72
2022/10/13 02:09:31;;;;;;;10.68;4.60;;;;;;;;;;4962271;28;20054;-74
2022/10/13 02:12:05;;;;;;;10.10;4.72;;;;;;;;;;4963178;28;20074;-71
2022/10/13 02:14:33;;;;;;;8.45;4.70;;;;;;;;;;4957154;28;20059;-72
2022/10/13 02:17:02;;;;;;;7.22;4.47;;;;;;;;;;4951991;28;20064;-70
2022/10/13 02:19:32;;;;;;;7.30;4.30;;;;;;;;;;4990495;28;20050;-70
2022/10/13 02:21:58;;;;;;;6.28;4.00;;;;;;;;;;4995315;28;20128;-72
2022/10/13 02:24:24;;;;;;;10.68;4.63;;;;;;;;;;4990528;28;20050;-73
2022/10/13 02:26:50;;;;;;;8.40;4.38;;;;;;;;;;4990247;28;20136;-72
2022/10/13 02:29:17;;;;;;;6.22;4.35;;;;;;;;;;4995984;28;20058;-72
2022/10/13 02:31:45;;;;;;;7.15;4.00;;;;;;;;;;4993813;28;20069;-70
2022/10/13 02:34:11;;;;;;;11.43;4.30;;;;;;;;;;4994218;28;20182;-73
2022/10/13 02:36:38;;;;;;;7.03;4.07;;;;;;;;;;4996694;28;20050;-74
2022/10/13 02:39:06;;;;;;;7.45;3.80;;;;;;;;;;4994270;28;20038;-71
2022/10/13 02:41:32;;;;;;;9.55;4.28;;;;;;;;;;4995440;28;20503;-76
2022/10/13 02:43:58;;;;;;;6.90;3.90;;;;;;;;;;4992216;28;20054;-71
2022/10/13 02:46:24;;;;;;;9.77;4.05;;;;;;;;;;4992064;28;20367;-72
2022/10/13 02:48:50;;;;;;;8.02;4.60;;;;;;;;;;4996998;28;20057;-73
2022/10/13 02:51:16;;;;;;;7.32;3.92;;;;;;;;;;4996627;28;20050;-70
2022/10/13 02:53:42;;;;;;;5.57;3.50;;;;;;;;;;4994857;28;20518;-70
2022/10/13 02:56:08;;;;;;;5.10;3.97;;;;;;;;;;4990566;28;20172;-71
2022/10/13 02:58:35;;;;;;;10.27;4.20;;;;;;;;;;4990844;28;20133;-72
2022/10/13 03:01:09;;;;;;;8.52;3.67;;;;;;;;;;4993795;28;20058;-75
2022/10/13 03:03:35;;;;;;;7.10;3.80;;;;;;;;;;4999174;28;20065;-69
2022/10/13 03:06:02;;;;;;;10.07;4.07;;;;;;;;;;4990886;28;20516;-71
2022/10/13 03:08:28;;;;;;;7.03;3.80;;;;;;;;;;4993506;28;20069;-72
2022/10/13 03:10:54;;;;;;;5.70;3.83;;;;;;;;;;4994371;28;20046;-70
2022/10/13 03:13:20;;;;;;;6.05;3.80;;;;;;;;;;4997322;28;20466;-72
2022/10/13 03:15:46;;;;;;;10.50;4.38;;;;;;;;;;4994366;28;20442;-70
2022/10/13 03:18:13;;;;;;;9.57;4.50;;;;;;;;;;4995310;28;20061;-73
2022/10/13 03:20:39;;;;;;;5.82;4.05;;;;;;;;;;4996149;28;20804;-73
2022/10/13 03:23:05;;;;;;;5.68;3.63;;;;;;;;;;4992785;28;20136;-70
2022/10/13 03:25:33;;;;;;;6.30;3.88;;;;;;;;;;4993795;28;20157;-70
2022/10/13 03:27:58;;;;;;;5.38;3.83;;;;;;;;;;4993086;28;20173;-74
2022/10/13 03:30:25;;;;;;;8.45;3.92;;;;;;;;;;4994583;28;20081;-70
2022/10/13 03:32:51;;;;;;;12.13;4.32;;;;;;;;;;4993204;28;20567;-72
2022/10/13 03:35:17;;;;;;;9.57;4.25;;;;;;;;;;4994914;28;20050;-70
2022/10/13 03:37:43;;;;;;;9.30;3.90;;;;;;;;;;4990142;28;20054;-74
2022/10/13 03:40:10;;;;;;;8.25;3.55;;;;;;;;;;4989919;28;20049;-74
2022/10/13 03:42:36;;;;;;;8.93;3.83;;;;;;;;;;4993651;28;20145;-72
2022/10/13 03:45:03;;;;;;;7.68;3.88;;;;;;;;;;4992176;28;20046;-72
2022/10/13 03:47:29;;;;;;;7.85;4.05;;;;;;;;;;4992428;28;20054;-71
2022/10/13 03:49:55;;;;;;;7.63;4.25;;;;;;;;;;4991070;28;20050;-71
2022/10/13 03:52:22;;;;;;;6.75;3.78;;;;;;;;;;4996178;28;20333;-73
2022/10/13 03:54:48;;;;;;;6.72;3.70;;;;;;;;;;4991146;28;20121;-72
2022/10/13 03:57:14;;;;;;;7.60;3.70;;;;;;;;;;4992072;28;20038;-71
2022/10/13 03:59:40;;;;;;;5.35;3.63;;;;;;;;;;4994572;28;20562;-72
2022/10/13 04:02:06;;;;;;;7.43;4.03;;;;;;;;;;4993960;28;21131;-69
2022/10/13 04:04:33;;;;;;;8.15;3.70;;;;;;;;;;4990678;28;20529;-71
2022/10/13 04:07:00;;;;;;;6.05;4.30;;;;;;;;;;4993039;28;20503;-69
2022/10/13 04:09:26;;;;;;;7.25;4.28;;;;;;;;;;4989358;28;20047;-71
2022/10/13 04:11:52;;;;;;;9.02;4.25;;;;;;;;;;4994212;28;20143;-72
2022/10/13 04:14:18;;;;;;;8.15;4.10;;;;;;;;;;4989754;28;20093;-72
2022/10/13 04:16:46;;;;;;;7.45;3.78;;;;;;;;;;4992109;28;20080;-72
2022/10/13 04:19:13;;;;;;;9.73;4.05;;;;;;;;;;4995423;28;20058;-72
2022/10/13 04:21:40;;;;;;;10.65;3.95;;;;;;;;;;4991056;28;20050;-71
2022/10/13 04:24:07;;;;;;;5.60;3.60;;;;;;;;;;4990067;28;20057;-69
2022/10/13 04:26:34;;;;;;;10.27;4.00;;;;;;;;;;4986829;28;20046;-71
2022/10/13 04:29:03;;;;;;;10.00;4.55;;;;;;;;;;4991098;28;20569;-70
2022/10/13 04:31:30;;;;;;;9.63;3.70;;;;;;;;;;4990530;28;20054;-71
2022/10/13 04:33:57;;;;;;;9.35;4.10;;;;;;;;;;4993905;28;20184;-71
2022/10/13 04:36:24;;;;;;;6.25;4.00;;;;;;;;;;4989124;28;20128;-72
2022/10/13 04:38:51;;;;;;;9.90;4.38;;;;;;;;;;4992223;28;20047;-71
2022/10/13 04:41:17;;;;;;;12.07;4.95;;;;;;;;;;4992972;28;20037;-70
2022/10/13 04:43:47;;;;;;;5.63;3.60;;;;;;;;;;4988851;28;20069;-72
2022/10/13 04:46:16;;;;;;;10.80;4.30;;;;;;;;;;4990215;28;20050;-73
2022/10/13 04:48:42;;;;;;;9.98;4.50;;;;;;;;;;4991637;28;20066;-70
2022/10/13 04:51:11;;;;;;;10.45;4.28;;;;;;;;;;4991864;28;20054;-71
2022/10/13 04:53:38;;;;;;;9.60;4.38;;;;;;;;;;4990714;28;20400;-70
2022/10/13 04:56:09;;;;;;;8.95;4.75;;;;;;;;;;4991235;28;20125;-71
2022/10/13 04:58:36;;;;;;;11.25;4.70;;;;;;;;;;4991400;28;20060;-72
2022/10/13 05:01:05;;;;;;;9.10;4.38;;;;;;;;;;4991118;28;20476;-73
2022/10/13 05:03:32;;;;;;;10.30;4.55;;;;;;;;;;4988332;28;20058;-72
2022/10/13 05:05:58;;;;;;;11.07;4.75;;;;;;;;;;4989302;28;20047;-70
2022/10/13 05:08:24;;;;;;;9.68;4.50;;;;;;;;;;4991289;28;20450;-73
2022/10/13 05:10:59;;;;;;;10.73;5.15;;;;;;;;;;4993732;28;20050;-73
2022/10/13 05:13:27;;;;;;;14.55;4.55;;;;;;;;;;4986919;28;20058;-71
2022/10/13 05:15:53;;;;;;;10.80;4.32;;;;;;;;;;4991679;28;20054;-70
2022/10/13 05:18:19;;;;;;;10.13;4.68;;;;;;;;;;4994092;28;20424;-71
2022/10/13 05:20:45;;;;;;;12.55;5.20;;;;;;;;;;4990779;28;20831;-72
2022/10/13 05:23:12;;;;;;;15.43;4.70;;;;;;;;;;4993426;28;20057;-70
2022/10/13 05:25:38;;;;;;;18.77;5.80;;;;;;;;;;4990046;28;20555;-71
2022/10/13 05:28:05;;;;;;;15.30;5.70;;;;;;;;;;4990370;28;20053;-72
2022/10/13 05:30:32;;;;;;;19.63;5.10;;;;;;;;;;4997018;28;20066;-72
2022/10/13 05:32:58;;;;;;;20.67;5.32;;;;;;;;;;4997866;28;20092;-69
2022/10/13 05:35:25;;;;;;;11.40;5.03;;;;;;;;;;4993844;28;20500;-71
2022/10/13 05:37:51;;;;;;;13.50;4.93;;;;;;;;;;4996934;28;20504;-71
2022/10/13 05:40:19;;;;;;;14.18;5.10;;;;;;;;;;4994918;28;20070;-71
2022/10/13 05:42:46;;;;;;;12.15;4.88;;;;;;;;;;4998966;28;20057;-71
2022/10/13 05:45:12;;;;;;;9.27;5.25;;;;;;;;;;4996322;28;20056;-69
2022/10/13 05:47:38;;;;;;;13.23;5.03;;;;;;;;;;4993478;28;20057;-71
2022/10/13 05:50:04;;;;;;;9.90;5.03;;;;;;;;;;4994399;28;20444;-72
2022/10/13 05:52:32;;;;;;;13.13;4.80;;;;;;;;;;4997434;28;20772;-72
2022/10/13 05:55:02;;;;;;;11.50;4.72;;;;;;;;;;4992753;28;20123;-72
2022/10/13 05:57:31;;;;;;;13.23;5.15;;;;;;;;;;4996166;28;20384;-72
2022/10/13 06:00:04;;;;;;;12.27;5.20;;;;;;;;;;4992722;28;20049;-72
2022/10/13 06:02:36;;;;;;;9.80;5.18;;;;;;;;;;4996436;28;20069;-72
2022/10/13 06:05:05;;;;;;;19.50;5.80;;;;;;;;;;4994166;28;20639;-70
2022/10/13 06:07:32;;;;;;;20.98;5.35;;;;;;;;;;4993333;28;20467;-71
2022/10/13 06:09:57;;;;;;;18.27;6.13;;;;;;;;;;4996820;28;20519;-72
2022/10/13 06:12:24;;;;;;;13.00;6.00;;;;;;;;;;4995275;28;20038;-70
2022/10/13 06:14:49;;;;;;;14.88;6.28;;;;;;;;;;4992991;28;20046;-71
2022/10/13 06:17:16;;;;;;;14.38;6.13;;;;;;;;;;4994130;28;20547;-71
2022/10/13 06:19:44;;;;;;;13.90;5.45;;;;;;;;;;4994903;28;20056;-73
2022/10/13 06:22:09;;;;;;;10.63;5.40;;;;;;;;;;4998046;28;20053;-71
2022/10/13 06:24:35;;;;;;;8.77;5.60;;;;;;;;;;4995344;28;20050;-69
2022/10/13 06:27:01;;;;;;;14.98;5.35;;;;;;;;;;4994411;28;20054;-70
2022/10/13 06:29:27;;;;;;;16.83;5.45;;;;;;;;;;4986628;28;20046;-68
2022/10/13 06:31:53;;;;;;;18.98;6.10;;;;;;;;;;4992199;28;20058;-71
2022/10/13 06:34:19;;;;;;;11.80;5.43;;;;;;;;;;4991150;28;20379;-71
2022/10/13 06:36:44;;;;;;;21.60;6.10;;;;;;;;;;4986133;28;20051;-71
2022/10/13 06:39:10;;;;;;;14.60;5.70;;;;;;;;;;4990206;28;20238;-71
2022/10/13 06:41:37;;;;;;;13.75;6.10;;;;;;;;;;4993387;28;20053;-72
2022/10/13 06:44:03;;;;;;;12.82;5.85;;;;;;;;;;4989787;28;20057;-66
2022/10/13 06:46:28;;;;;;;17.65;5.80;;;;;;;;;;4993614;28;20584;-71
2022/10/13 06:48:55;;;;;;;12.93;6.50;;;;;;;;;;4992737;28;20456;-74
2022/10/13 06:51:20;;;;;;;14.80;7.07;;;;;;;;;;4991286;28;20109;-70
2022/10/13 06:53:46;;;;;;;16.38;6.60;;;;;;;;;;4995058;28;20561;-71
2022/10/13 06:56:13;;;;;;;18.48;6.38;;;;;;;;;;4992376;28;20471;-71
2022/10/13 06:58:39;;;;;;;16.65;7.20;;;;;;;;;;4994047;28;20054;-71
2022/10/13 07:01:05;;;;;;;17.52;7.75;;;;;;;;;;4991957;28;20053;-71
2022/10/13 07:03:31;;;;;;;22.10;7.43;;;;;;;;;;4993721;28;20057;-69
2022/10/13 07:06:02;;;;;;;20.02;7.22;;;;;;;;;;4992754;28;20042;-66
2022/10/13 07:08:29;;;;;;;17.33;6.22;;;;;;;;;;4993637;28;20065;-70
2022/10/13 07:10:55;;;;;;;30.63;6.32;;;;;;;;;;4991250;28;20042;-72
2022/10/13 07:13:20;;;;;;;14.05;6.07;;;;;;;;;;4992728;28;20054;-72
2022/10/13 07:15:46;;;;;;;14.40;6.65;;;;;;;;;;4991948;28;20050;-69
2022/10/13 07:18:12;;;;;;;16.13;6.32;;;;;;;;;;4990351;28;20054;-71
2022/10/13 07:20:38;;;;;;;23.38;7.22;;;;;;;;;;4990610;28;20042;-71
2022/10/13 07:23:03;;;;;;;15.00;5.88;;;;;;;;;;4986764;28;20083;-71
2022/10/13 07:25:29;;;;;;;19.08;5.82;;;;;;;;;;4988161;28;20621;-69
2022/10/13 07:27:57;;;;;;;22.08;6.10;;;;;;;;;;4992106;28;20065;-69
2022/10/13 07:30:25;;;;;;;21.40;6.20;;;;;;;;;;4990664;28;20518;-72
2022/10/13 07:32:52;;;;;;;21.88;6.43;;;;;;;;;;4989980;28;20057;-73
2022/10/13 07:35:18;;;;;;;16.65;6.43;;;;;;;;;;4985501;28;20058;-71
2022/10/13 07:37:44;;;;;;;18.23;5.97;;;;;;;;;;4986812;28;20049;-71
2022/10/13 07:40:10;;;;;;;10.68;5.50;;;;;;;;;;4989712;28;20413;-70
2022/10/13 07:42:36;;;;;;;15.70;5.72;;;;;;;;;;4991368;28;20176;-71
2022/10/13 07:45:02;;;;;;;13.18;5.35;;;;;;;;;;4990825;28;20142;-71
2022/10/13 07:47:28;;;;;;;17.23;5.55;;;;;;;;;;4990344;28;20058;-73
2022/10/13 07:49:54;;;;;;;17.67;5.93;;;;;;;;;;4992913;28;20104;-70
2022/10/13 07:52:20;;;;;;;18.85;5.75;;;;;;;;;;4987138;28;20415;-69
2022/10/13 07:54:46;;;;;;;17.75;5.30;;;;;;;;;;4991747;28;20680;-71
2022/10/13 07:57:12;;;;;;;13.27;5.45;;;;;;;;;;4991814;28;20046;-68
2022/10/13 07:59:38;;;;;;;13.98;5.78;;;;;;;;;;4993997;28;20053;-73
2022/10/13 08:02:04;;;;;;;10.35;4.68;;;;;;;;;;4992939;28;20045;-67
2022/10/13 08:04:30;;;;;;;18.73;5.20;;;;;;;;;;4990044;28;20395;-68
2022/10/13 08:06:57;;;;;;;14.80;4.90;;;;;;;;;;4996573;28;20072;-71
2022/10/13 08:09:24;;;;;;;18.00;5.07;;;;;;;;;;4987696;28;20467;-72
2022/10/13 08:11:51;;;;;;;20.45;5.28;;;;;;;;;;4989998;28;20489;-70
2022/10/13 08:17:43;;;;;;;14.75;5.10;;;;;;;;;;4985325;28;20522;-72
2022/10/13 08:20:09;;;;;;;17.50;5.20;;;;;;;;;;4994984;28;20042;-69
2022/10/13 08:22:35;;;;;;;18.40;4.78;;;;;;;;;;4989547;28;20053;-72
2022/10/13 08:25:02;;;;;;;13.55;5.07;;;;;;;;;;4992006;28;20059;-70
2022/10/13 08:27:28;;;;;;;9.32;4.80;;;;;;;;;;4992810;28;20397;-72
2022/10/13 08:29:54;;;;;;;12.68;5.60;;;;;;;;;;4992816;28;20471;-71
2022/10/13 08:32:21;;;;;;;15.63;4.72;;;;;;;;;;4994681;28;20057;-69
2022/10/13 08:34:48;;;;;;;10.02;4.20;;;;;;;;;;4989042;28;20045;-71
2022/10/13 08:37:16;;;;;;;13.02;4.60;;;;;;;;;;4990106;28;20042;-72
2022/10/13 08:39:43;;;;;;;15.38;4.78;;;;;;;;;;4989848;28;20056;-71
2022/10/13 08:42:18;;;;;;;17.92;5.20;;;;;;;;;;4990890;28;20050;-67
2022/10/13 08:44:56;;;;;;;20.15;4.78;;;;;;;;;;4988550;28;20088;-67
2022/10/13 08:47:45;;;;;;;16.27;4.90;;;;;;;;;;4989393;28;20487;-65
2022/10/13 08:50:19;;;;;;;10.05;5.03;;;;;;;;;;4991574;28;20057;-66
2022/10/13 08:52:59;;;;;;;13.57;5.20;;;;;;;;;;4992223;28;20139;-66
2022/10/13 08:55:43;;;;;;;19.15;5.28;;;;;;;;;;4987852;28;20053;-65
2022/10/13 08:58:26;;;;;;;;;;;;;;;;;;4995692;28;20050;-66
2022/10/13 09:01:08;;;;;;;15.80;5.10;;;;;;;;;;4993570;28;19922;-64
2022/10/13 09:03:45;;;;;;;16.85;4.97;;;;;;;;;;4995047;28;20071;-64
2022/10/13 09:06:20;;;;;;;18.80;6.00;;;;;;;;;;4993383;28;20069;-67
2022/10/13 09:08:57;;;;;;;17.02;6.55;;;;;;;;;;4995891;28;20068;-65
2022/10/13 09:11:26;;;;;;;18.60;5.93;;;;;;;;;;4993985;28;20050;-65
2022/10/13 09:13:54;;;;;;;13.57;6.47;;;;;;;;;;4991270;28;20062;-65
2022/10/13 09:16:36;;;;;;;13.30;5.28;;;;;;;;;;4994832;28;20053;-66
2022/10/13 09:19:24;;;;;;;14.00;4.47;;;;;;;;;;4993437;28;20058;-66
2022/10/13 09:21:53;;;;;;;13.38;3.55;;;;;;;;;;4999716;28;20304;-66
2022/10/13 09:24:21;;;;;;;14.40;2.97;;;;;;;;;;4993726;28;20050;-69
2022/10/13 09:26:51;;;;;;;7.25;2.95;;;;;;;;;;4996985;28;20050;-68
2022/10/13 09:29:25;;;;;;;7.85;2.97;;;;;;;;;;4997132;28;20074;-65
2022/10/13 09:32:06;;;;;;;7.82;2.30;;;;;;;;;;5000353;28;20050;-66
2022/10/13 09:34:33;;;;;;;5.93;2.20;;;;;;;;;;4998094;28;20059;-66
2022/10/13 09:37:04;;;;;;;11.73;2.60;;;;;;;;;;4995754;28;20511;-66
2022/10/13 09:39:32;;;;;;;11.35;2.30;;;;;;;;;;4994042;28;20327;-66
2022/10/13 09:42:25;;;;;;;5.65;2.25;;;;;;;;;;5001164;28;20049;-67
2022/10/13 09:45:15;;;;;;;5.00;1.98;;;;;;;;;;4997066;28;20049;-65
2022/10/13 09:47:52;;;;;;;6.00;2.35;;;;;;;;;;4990684;28;20460;-68
2022/10/13 09:50:23;;;;;;;18.17;2.17;;;;;;;;;;4995140;28;20574;-66
2022/10/13 09:52:49;;;;;;;4.72;1.88;;;;;;;;;;4995711;28;20496;-65
2022/10/13 09:55:35;;;;;;;6.18;1.90;;;;;;;;;;4993891;28;20064;-69
2022/10/13 09:58:16;;;;;;;4.90;2.05;;;;;;;;;;4995225;28;20061;-70
2022/10/13 10:00:42;;;;;;;7.05;1.73;;;;;;;;;;4993425;28;20162;-68
2022/10/13 10:03:19;;;;;;;6.00;1.40;;;;;;;;;;4990527;28;20049;-68
2022/10/13 10:05:52;;;;;;;5.13;1.70;;;;;;;;;;4994549;28;20050;-70
2022/10/13 10:08:26;;;;;;;5.13;1.55;;;;;;;;;;4996464;28;20056;-68
2022/10/13 10:10:53;;;;;;;10.20;1.95;;;;;;;;;;4996826;28;20062;-70
2022/10/13 10:13:19;;;;;;;7.05;1.90;;;;;;;;;;4998336;28;20050;-69
2022/10/13 10:15:57;;;;;;;8.13;2.22;;;;;;;;;;4999995;28;20447;-70
2022/10/13 10:18:37;;;;;;;5.93;2.20;;;;;;;;;;4993829;28;20053;-69
2022/10/13 10:21:08;;;;;;;4.60;1.80;;;;;;;;;;4994397;28;20139;-70
2022/10/13 10:23:40;;;;;;;4.18;2.25;;;;;;;;;;4991351;28;20072;-68
2022/10/13 10:26:40;;;;;;;7.00;1.95;;;;;;;;;;4989932;28;20114;-71
2022/10/13 10:29:14;;;;;;;6.35;2.10;;;;;;;;;;4987003;28;20080;-67
2022/10/13 10:32:02;;;;;;;4.15;2.13;;;;;;;;;;4992104;28;20054;-68
2022/10/13 10:34:35;;;;;;;4.28;2.08;;;;;;;;;;4988024;28;20433;-68
2022/10/13 10:37:16;;;;;;;5.20;1.88;;;;;;;;;;4990744;28;20046;-69
2022/10/13 10:40:14;;;;;;;3.83;1.80;;;;;;;;;;4990080;28;20060;-68
2022/10/13 10:42:52;;;;;;;7.05;2.38;;;;;;;;;;4993370;28;20052;-68
2022/10/13 10:45:23;;;;;;;6.32;2.08;;;;;;;;;;4988455;28;20064;-67
2022/10/13 10:47:56;;;;;;;5.85;1.95;;;;;;;;;;4993495;28;20050;-69
2022/10/13 10:50:23;;;;;;;4.40;1.92;;;;;;;;;;4993015;28;20050;-69
2022/10/13 10:53:06;;;;;;;6.43;2.25;;;;;;;;;;4987664;28;20457;-69
2022/10/13 10:55:51;;;;;;;8.88;2.55;;;;;;;;;;4987301;28;20049;-69
2022/10/13 10:58:57;;;;;;;4.35;2.05;;;;;;;;;;4989242;28;20169;-69
2022/10/13 11:01:26;;;;;;;5.32;2.22;;;;;;;;;;4989617;28;20053;-68
2022/10/13 11:04:29;;;;;;;6.97;2.22;;;;;;;;;;4989470;28;20064;-68
2022/10/13 11:06:55;;;;;;;7.22;1.90;;;;;;;;;;4993339;28;20463;-68
2022/10/13 11:09:39;;;;;;;3.00;1.90;;;;;;;;;;4990287;28;20061;-67
2022/10/13 11:12:18;;;;;;;3.65;1.90;;;;;;;;;;4993183;28;20046;-69
2022/10/13 11:14:52;;;;;;;8.00;2.30;;;;;;;;;;4987832;28;20514;-68
2022/10/13 11:17:30;;;;;;;9.13;2.00;;;;;;;;;;4992137;28;20089;-68
2022/10/13 11:19:57;;;;;;;7.93;3.03;;;;;;;;;;4988940;28;20133;-68
2022/10/13 11:22:26;;;;;;;8.00;2.60;;;;;;;;;;4987108;28;20058;-69
2022/10/13 11:25:22;;;;;;;6.80;2.30;;;;;;;;;;4987584;28;20050;-70
2022/10/13 11:27:48;;;;;;;5.07;1.92;;;;;;;;;;4985038;28;20313;-69
2022/10/13 11:30:41;;;;;;;5.55;2.05;;;;;;;;;;4985473;28;20076;-70
2022/10/13 11:33:33;;;;;;;6.13;2.03;;;;;;;;;;4989584;28;20145;-69
2022/10/13 11:36:38;;;;;;;6.15;2.10;;;;;;;;;;4987698;28;20064;-69
2022/10/13 11:39:34;;;;;;;4.10;2.28;;;;;;;;;;4986534;28;20061;-68
2022/10/13 11:42:18;;;;;;;5.75;2.13;;;;;;;;;;4991138;28;20085;-70
2022/10/13 11:45:02;;;;;;;7.80;2.10;;;;;;;;;;4988494;28;20530;-70
2022/10/13 11:47:52;;;;;;;6.32;2.63;;;;;;;;;;4987795;28;20053;-69
2022/10/13 11:50:47;;;;;;;6.45;2.50;;;;;;;;;;4989828;28;20049;-70
2022/10/13 11:53:26;;;;;;;10.05;2.90;;;;;;;;;;4986389;28;20089;-67
2022/10/13 11:55:56;;;;;;;12.05;2.97;;;;;;;;;;4986479;28;20046;-69
2022/10/13 11:58:31;;;;;;;8.88;2.85;;;;;;;;;;4992367;28;20152;-66
2022/10/13 12:01:07;;;;;;;11.10;2.88;;;;;;;;;;4989742;28;20077;-70
2022/10/13 12:03:35;;;;;;;9.65;2.67;;;;;;;;;;4984443;28;21158;-74
2022/10/13 12:06:15;;;;;;;6.53;2.20;;;;;;;;;;4989562;28;20069;-69
2022/10/13 12:08:46;;;;;;;7.28;2.50;;;;;;;;;;4989467;28;20061;-68
2022/10/13 12:11:25;;;;;;;7.93;2.53;;;;;;;;;;4991253;28;20061;-70
2022/10/13 12:13:52;;;;;;;5.15;2.60;;;;;;;;;;4987473;28;20085;-67
2022/10/13 12:16:18;;;;;;;6.68;2.35;;;;;;;;;;4993691;28;20459;-68
2022/10/13 12:18:44;;;;;;;10.95;2.80;;;;;;;;;;4989647;28;20042;-69
2022/10/13 12:21:18;;;;;;;8.68;2.30;;;;;;;;;;4990667;28;20054;-70
2022/10/13 12:23:45;;;;;;;;;;;;;;;;;;4989073;28;20454;-67
2022/10/13 12:26:20;;;;;;;4.75;1.98;;;;;;;;;;4986753;28;19948;-69
2022/10/13 12:28:57;;;;;;;5.22;2.47;;;;;;;;;;4987818;28;20496;-70
2022/10/13 12:31:28;;;;;;;5.43;2.17;;;;;;;;;;4993518;28;20057;-68
2022/10/13 12:34:01;;;;;;;6.80;2.30;;;;;;;;;;4994129;28;20601;-68
2022/10/13 12:36:33;;;;;;;4.55;1.90;;;;;;;;;;5001581;28;20136;-68
2022/10/13 12:39:10;;;;;;;5.97;2.00;;;;;;;;;;4995116;28;20137;-71
2022/10/13 12:41:41;;;;;;;6.40;2.28;;;;;;;;;;4998494;28;20172;-67
2022/10/13 12:44:15;;;;;;;8.05;2.92;;;;;;;;;;4995449;28;20049;-68
2022/10/13 12:46:43;;;;;;;9.10;2.45;;;;;;;;;;4999656;28;20054;-68
2022/10/13 12:49:18;;;;;;;6.03;1.77;;;;;;;;;;4996372;28;20413;-68
2022/10/13 12:51:46;;;;;;;6.63;2.30;;;;;;;;;;4996118;28;20345;-68
2022/10/13 12:54:19;;;;;;;5.38;2.20;;;;;;;;;;4992306;28;20064;-68
2022/10/13 12:56:45;;;;;;;4.63;1.80;;;;;;;;;;4998301;28;20133;-70
2022/10/13 12:59:16;;;;;;;6.57;1.80;;;;;;;;;;4991626;28;20425;-70
2022/10/13 13:01:43;;;;;;;6.78;1.98;;;;;;;;;;4996706;28;20203;-69
2022/10/13 13:04:20;;;;;;;6.22;2.00;;;;;;;;;;5010393;28;20054;-70
2022/10/13 13:07:04;;;;;;;8.30;2.42;;;;;;;;;;5005707;28;20049;-71
2022/10/13 13:09:34;;;;;;;7.28;2.50;;;;;;;;;;5013654;28;20037;-70
2022/10/13 13:12:09;;;;;;;6.43;2.10;;;;;;;;;;5016587;28;20123;-69
2022/10/13 13:14:48;;;;;;;6.18;2.40;;;;;;;;;;5000536;28;20049;-70
2022/10/13 13:17:27;;;;;;;5.10;1.63;;;;;;;;;;5012425;28;20442;-71
2022/10/13 13:19:54;;;;;;;6.03;1.70;;;;;;;;;;5001423;28;20050;-69
2022/10/13 13:22:20;;;;;;;5.68;2.33;;;;;;;;;;5012614;28;20041;-70
2022/10/13 13:24:48;;;;;;;7.88;2.20;;;;;;;;;;5011662;28;20080;-69
2022/10/13 13:27:22;;;;;;;5.45;2.13;;;;;;;;;;5014859;28;20139;-74
2022/10/13 13:29:48;;;;;;;5.22;1.85;;;;;;;;;;5015169;28;20515;-69
2022/10/13 13:32:16;;;;;;;6.78;1.98;;;;;;;;;;5001104;28;20057;-71
2022/10/13 13:34:42;;;;;;;4.53;2.20;;;;;;;;;;5015692;28;20046;-70
2022/10/13 13:37:43;;;;;;;3.92;2.20;;;;;;;;;;5015197;28;20049;-70
2022/10/13 13:40:23;;;;;;;4.13;2.20;;;;;;;;;;5010720;28;20050;-70
2022/10/13 13:42:50;;;;;;;11.65;2.47;;;;;;;;;;5008662;28;20121;-72
2022/10/13 13:45:18;;;;;;;5.32;2.38;;;;;;;;;;5007998;28;20042;-69
2022/10/13 13:47:44;;;;;;;6.30;2.55;;;;;;;;;;4992048;28;20141;-69
2022/10/13 13:50:19;;;;;;;9.13;2.40;;;;;;;;;;5000798;28;20050;-70
2022/10/13 13:52:45;;;;;;;5.82;2.40;;;;;;;;;;5007566;28;20137;-71
2022/10/13 13:55:11;;;;;;;6.25;2.20;;;;;;;;;;5009072;28;20117;-70
2022/10/13 13:57:37;;;;;;;6.60;2.28;;;;;;;;;;5008071;28;20054;-69
2022/10/13 14:00:04;;;;;;;8.35;2.20;;;;;;;;;;5007521;28;20053;-69
2022/10/13 14:02:30;;;;;;;7.20;2.30;;;;;;;;;;5002391;28;20034;-71
2022/10/13 14:04:56;;;;;;;6.28;2.25;;;;;;;;;;5005988;28;20648;-70
2022/10/13 14:07:21;;;;;;;9.32;2.47;;;;;;;;;;5007972;28;20045;-70
2022/10/13 14:09:47;;;;;;;7.03;2.22;;;;;;;;;;5005462;28;20192;-70
2022/10/13 14:12:13;;;;;;;12.25;3.10;;;;;;;;;;5007290;28;20130;-71
2022/10/13 14:14:39;;;;;;;8.65;2.85;;;;;;;;;;5007901;28;20097;-71
2022/10/13 14:17:05;;;;;;;10.45;2.78;;;;;;;;;;5011121;28;20510;-74
2022/10/13 14:19:32;;;;;;;9.32;2.40;;;;;;;;;;5012107;28;20045;-72
2022/10/13 14:21:58;;;;;;;7.80;2.22;;;;;;;;;;5001543;28;20070;-74
2022/10/13 14:24:24;;;;;;;10.90;2.28;;;;;;;;;;5014503;28;20050;-73
2022/10/13 14:26:50;;;;;;;7.32;2.72;;;;;;;;;;5013246;28;20121;-73
2022/10/13 14:29:16;;;;;;;11.75;1.90;;;;;;;;;;5007485;28;20038;-73
2022/10/13 14:31:42;;;;;;;7.30;2.63;;;;;;;;;;5000808;28;20130;-73
2022/10/13 14:34:08;;;;;;;7.22;2.58;;;;;;;;;;5013717;28;20046;-74
2022/10/13 14:36:34;;;;;;;6.35;2.13;;;;;;;;;;5013493;28;20506;-74
2022/10/13 14:38:59;;;;;;;5.70;2.08;;;;;;;;;;5008647;28;20080;-73
2022/10/13 14:41:26;;;;;;;10.20;2.50;;;;;;;;;;5012291;28;20665;-74
2022/10/13 14:43:53;;;;;;;6.07;2.20;;;;;;;;;;5011098;28;20113;-74
2022/10/13 14:46:19;;;;;;;7.25;2.00;;;;;;;;;;5006619;28;20073;-75
2022/10/13 14:48:45;;;;;;;8.20;2.42;;;;;;;;;;5008439;28;20108;-74
2022/10/13 14:51:12;;;;;;;6.05;2.00;;;;;;;;;;5009824;28;20407;-81
2022/10/13 14:53:40;;;;;;;14.20;2.47;;;;;;;;;;5008108;28;20419;-76
2022/10/13 14:56:18;;;;;;;7.05;2.15;;;;;;;;;;5009630;28;20085;-78
2022/10/13 14:58:45;;;;;;;7.15;1.90;;;;;;;;;;5015867;28;20096;-83
2022/10/13 15:01:12;;;;;;;8.35;2.10;;;;;;;;;;5017586;28;20045;-77
2022/10/13 15:03:37;;;;;;;6.95;2.20;;;;;;;;;;5016285;28;20049;-80